Time;durP1;ratioP1;P1;durP2;ratioP2;P2;SDS_P1;SDS_P2;PMS_P1;PMS_P2;Temp;Humidity;BMP_temperature;BMP_pressure;BME280_temperature;BME280_humidity;BME280_pressure;Samples;Min_cycle;Max_cycle;Signal;HPM_P1;HPM_P2
2023/01/07 00:01:15;;;;;;;10.40;7.40;;;;;;;8.42;99.89;100992.48;105503;1294;74604;-75
2023/01/07 00:03:44;;;;;;;8.70;7.00;;;;;;;8.44;99.86;100995.61;105483;1295;71128;-75
2023/01/07 00:06:13;;;;;;;8.60;7.20;;;;;;;8.45;100.00;100996.70;105277;1296;72954;-75
2023/01/07 00:08:41;;;;;;;8.80;7.20;;;;;;;8.46;99.97;101001.54;105627;1294;60067;-75
2023/01/07 00:11:11;;;;;;;8.10;7.00;;;;;;;8.48;99.96;100996.80;105413;1298;59736;-75
2023/01/07 00:13:38;;;;;;;8.20;6.80;;;;;;;8.50;100.00;101000.14;105412;1294;76360;-75
2023/01/07 00:16:08;;;;;;;7.50;6.70;;;;;;;8.50;100.00;100996.94;105613;1286;69917;-75
2023/01/07 00:18:35;;;;;;;8.40;6.50;;;;;;;8.51;100.00;100994.19;105450;1295;73280;-75
2023/01/07 00:21:05;;;;;;;8.00;6.10;;;;;;;8.52;100.00;100985.79;105450;1294;60676;-75
2023/01/07 00:23:33;;;;;;;7.20;6.10;;;;;;;8.54;100.00;100990.04;105532;1294;60851;-75
2023/01/07 00:26:06;;;;;;;6.70;5.60;;;;;;;8.55;100.00;100986.15;105612;1293;75317;-75
2023/01/07 00:28:34;;;;;;;8.20;6.00;;;;;;;8.58;100.00;100990.69;105506;1297;69967;-75
2023/01/07 00:31:02;;;;;;;6.30;5.20;;;;;;;8.60;100.00;100995.55;105386;1293;71100;-75
2023/01/07 00:33:28;;;;;;;6.40;5.40;;;;;;;8.63;100.00;100988.41;105403;1294;61202;-75
2023/01/07 00:36:03;;;;;;;6.80;5.50;;;;;;;8.67;100.00;100987.15;105412;1292;60204;-75
2023/01/07 00:38:30;;;;;;;7.60;5.20;;;;;;;8.70;100.00;100990.34;105650;1294;75261;-75
2023/01/07 00:40:56;;;;;;;6.70;5.50;;;;;;;8.74;100.00;100996.12;105497;1287;69570;-75
2023/01/07 00:43:23;;;;;;;6.60;5.00;;;;;;;8.78;100.00;100992.73;105332;1296;59866;-75
2023/01/07 00:45:49;;;;;;;5.80;5.10;;;;;;;8.80;100.00;100984.36;105417;1287;59931;-75
2023/01/07 00:48:17;;;;;;;6.20;5.10;;;;;;;8.83;100.00;100985.56;105413;1282;59135;-75
2023/01/07 00:50:47;;;;;;;5.90;4.70;;;;;;;8.85;100.00;100985.33;105457;1293;75906;-75
2023/01/07 00:53:13;;;;;;;5.80;4.90;;;;;;;8.86;100.00;100983.20;105427;1287;69676;-75
2023/01/07 00:55:40;;;;;;;5.80;4.70;;;;;;;8.89;100.00;100990.16;105509;1293;72948;-75
2023/01/07 00:58:06;;;;;;;5.50;4.80;;;;;;;8.92;100.00;100989.51;105526;1293;60175;-75
2023/01/07 01:00:33;;;;;;;5.70;4.60;;;;;;;8.93;100.00;100991.48;105608;1293;60064;-75
2023/01/07 01:02:59;;;;;;;5.70;4.70;;;;;;;8.95;100.00;100990.45;105530;1294;73847;-75
2023/01/07 01:05:26;;;;;;;6.50;4.50;;;;;;;8.96;100.00;100991.55;105648;1286;60084;-75
2023/01/07 01:07:52;;;;;;;5.10;4.20;;;;;;;8.97;100.00;100993.91;105609;1294;59744;-75
2023/01/07 01:10:19;;;;;;;6.00;4.40;;;;;;;8.98;100.00;100995.37;105491;1294;59930;-75
2023/01/07 01:12:48;;;;;;;5.10;4.20;;;;;;;9.01;100.00;100988.10;105422;1293;59732;-75
2023/01/07 01:15:15;;;;;;;5.40;3.70;;;;;;;9.02;100.00;100983.29;105543;1287;74226;-75
2023/01/07 01:17:42;;;;;;;5.30;4.20;;;;;;;9.02;100.00;100983.71;105631;1286;70927;-75
2023/01/07 01:20:12;;;;;;;6.20;4.40;;;;;;;9.03;100.00;100983.51;105498;1294;71231;-75
2023/01/07 01:22:39;;;;;;;5.30;3.70;;;;;;;9.02;100.00;100978.61;105225;1294;60195;-75
2023/01/07 01:25:06;;;;;;;4.90;3.50;;;;;;;9.00;100.00;100974.94;105524;1295;60031;-75
2023/01/07 01:27:32;;;;;;;4.30;3.30;;;;;;;8.99;100.00;100975.39;105392;1293;75188;-75
2023/01/07 01:29:59;;;;;;;4.10;3.20;;;;;;;8.98;100.00;100977.21;105543;1287;59881;-75
2023/01/07 01:32:26;;;;;;;3.90;3.10;;;;;;;8.97;100.00;100972.52;105625;1284;59879;-75
2023/01/07 01:34:52;;;;;;;4.20;3.00;;;;;;;8.97;100.00;100972.71;105466;1293;59712;-75
2023/01/07 01:37:19;;;;;;;3.60;2.70;;;;;;;8.97;100.00;100975.35;105652;1292;60334;-75
2023/01/07 01:39:45;;;;;;;4.00;3.10;;;;;;;8.97;100.00;100979.79;105513;1287;60038;-75
2023/01/07 01:42:14;;;;;;;3.70;2.60;;;;;;;8.95;100.00;100974.74;105510;1295;60204;-75
2023/01/07 01:44:53;;;;;;;3.70;2.50;;;;;;;8.93;100.00;100979.52;105510;1295;72940;-75
2023/01/07 01:47:23;;;;;;;3.50;2.50;;;;;;;8.91;100.00;100971.75;105619;1293;61445;-75
2023/01/07 01:49:58;;;;;;;2.80;2.40;;;;;;;8.88;100.00;100971.38;105653;1294;60087;-75
2023/01/07 01:52:37;;;;;;;3.70;2.80;;;;;;;8.87;100.00;100971.36;105508;1292;73917;-75
2023/01/07 01:55:07;;;;;;;3.30;2.60;;;;;;;8.85;100.00;100973.14;105513;1292;70003;-75
2023/01/07 01:57:37;;;;;;;4.10;2.50;;;;;;;8.83;100.00;100973.02;105508;1294;71394;-75
2023/01/07 02:00:05;;;;;;;5.40;2.60;;;;;;;8.78;100.00;100974.74;105597;1294;60401;-75
2023/01/07 02:02:37;;;;;;;3.20;2.50;;;;;;;8.74;100.00;100977.44;105633;1294;59536;-75
2023/01/07 02:05:06;;;;;;;2.90;2.30;;;;;;;8.70;100.00;100971.86;105514;1292;74717;-75
2023/01/07 02:07:33;;;;;;;3.70;2.50;;;;;;;8.65;100.00;100966.56;105523;1295;69507;-75
2023/01/07 02:10:08;;;;;;;3.10;2.50;;;;;;;8.60;100.00;100965.95;105391;1296;71126;-75
2023/01/07 02:13:16;;;;;;;3.20;2.60;;;;;;;8.57;100.00;100968.60;105508;1289;60703;-75
2023/01/07 02:16:06;;;;;;;3.40;2.60;;;;;;;8.52;100.00;100967.41;105502;1293;60573;-75
2023/01/07 02:18:36;;;;;;;4.20;2.60;;;;;;;8.51;100.00;100964.96;105623;1294;74225;-75
2023/01/07 02:21:21;;;;;;;3.90;2.60;;;;;;;8.49;100.00;100967.72;105497;1295;71495;-75
2023/01/07 02:24:07;;;;;;;3.10;2.60;;;;;;;8.49;100.00;100969.14;105640;1292;72345;-75
2023/01/07 02:27:27;;;;;;;3.40;2.80;;;;;;;8.51;100.00;100968.21;105633;1286;59714;-75
2023/01/07 02:30:15;;;;;;;3.50;2.60;;;;;;;8.54;100.00;100963.55;105254;1299;60078;-75
2023/01/07 02:33:21;;;;;;;3.40;2.70;;;;;;;8.59;100.00;100963.30;105468;1289;76685;-75
2023/01/07 02:36:25;;;;;;;3.70;2.70;;;;;;;8.63;100.00;100963.55;105442;1287;69543;-75
2023/01/07 02:39:20;;;;;;;3.20;2.80;;;;;;;8.70;100.00;100961.45;105622;1292;73476;-75
2023/01/07 02:42:22;;;;;;;4.30;2.80;;;;;;;8.76;100.00;100957.13;105446;1294;60007;-75
2023/01/07 02:45:03;;;;;;;3.40;2.70;;;;;;;8.82;100.00;100955.48;105530;1292;59863;-75
2023/01/07 02:47:38;;;;;;;3.50;2.90;;;;;;;8.86;100.00;100955.95;105610;1294;75629;-75
2023/01/07 02:50:06;;;;;;;3.10;2.70;;;;;;;8.89;100.00;100952.55;105491;1291;69531;-75
2023/01/07 02:52:34;;;;;;;3.50;2.50;;;;;;;8.92;100.00;100945.20;105338;1296;73069;-75
2023/01/07 02:55:06;;;;;;;4.60;2.60;;;;;;;8.94;100.00;100942.19;105399;1295;60570;-75
2023/01/07 02:58:11;;;;;;;3.50;2.40;;;;;;;8.96;100.00;100935.13;105563;1293;60355;-75
2023/01/07 03:01:16;;;;;;;3.30;2.90;;;;;;;8.96;100.00;100931.95;105501;1289;74515;-75
2023/01/07 03:03:51;;;;;;;3.70;2.80;;;;;;;8.96;100.00;100937.41;105443;1289;70551;-75
2023/01/07 03:06:37;;;;;;;4.00;2.90;;;;;;;8.95;100.00;100938.50;105433;1296;73809;-75
2023/01/07 03:09:14;;;;;;;3.80;3.00;;;;;;;8.94;100.00;100935.11;105527;1294;61423;-75
2023/01/07 03:12:16;;;;;;;3.60;2.90;;;;;;;8.93;100.00;100934.73;105533;1294;59975;-75
2023/01/07 03:14:50;;;;;;;4.20;3.00;;;;;;;8.91;100.00;100930.65;105402;1287;74625;-75
2023/01/07 03:17:23;;;;;;;4.10;3.10;;;;;;;8.90;100.00;100927.42;105488;1295;70386;-75
2023/01/07 03:19:57;;;;;;;5.00;3.50;;;;;;;8.88;100.00;100925.19;105496;1284;72671;-75
2023/01/07 03:22:27;;;;;;;3.70;3.00;;;;;;;8.86;100.00;100923.58;105488;1294;59846;-75
2023/01/07 03:24:56;;;;;;;4.10;3.40;;;;;;;8.84;100.00;100918.08;105508;1302;60188;-75
2023/01/07 03:27:26;;;;;;;3.90;3.30;;;;;;;8.81;100.00;100917.13;105508;1294;75319;-75
2023/01/07 03:29:54;;;;;;;4.00;3.40;;;;;;;8.78;100.00;100916.36;105628;1291;70675;-75
2023/01/07 03:32:30;;;;;;;5.60;3.70;;;;;;;8.76;100.00;100917.94;105562;1294;71842;-75
2023/01/07 03:34:57;;;;;;;3.90;3.40;;;;;;;8.76;100.00;100917.73;105484;1294;60558;-75
2023/01/07 03:37:26;;;;;;;4.00;3.50;;;;;;;8.77;100.00;100918.59;105621;1292;60802;-75
2023/01/07 03:39:53;;;;;;;3.90;3.30;;;;;;;8.77;100.00;100912.55;105496;1294;74739;-75
2023/01/07 03:42:39;;;;;;;3.80;3.30;;;;;;;8.78;100.00;100913.48;105477;1289;71650;-75
2023/01/07 03:45:10;;;;;;;3.40;3.00;;;;;;;8.78;100.00;100912.48;105427;1296;72829;-75
2023/01/07 03:47:38;;;;;;;4.00;3.40;;;;;;;8.79;100.00;100908.33;105635;1294;61359;-75
2023/01/07 03:50:04;;;;;;;3.80;3.10;;;;;;;8.80;100.00;100906.64;105533;1294;59937;-75
2023/01/07 03:52:31;;;;;;;3.80;2.90;;;;;;;8.82;100.00;100902.02;105616;1292;75670;-75
2023/01/07 03:54:57;;;;;;;3.30;2.80;;;;;;;8.84;100.00;100905.98;105646;1294;59835;-75
2023/01/07 03:57:24;;;;;;;3.70;2.50;;;;;;;8.86;100.00;100908.98;105554;1294;59634;-75
2023/01/07 03:59:50;;;;;;;3.60;2.60;;;;;;;8.88;100.00;100903.32;105554;1294;59836;-75
2023/01/07 04:02:17;;;;;;;3.20;2.80;;;;;;;8.89;100.00;100905.54;105615;1284;60513;-75
2023/01/07 04:04:43;;;;;;;4.00;2.70;;;;;;;8.91;100.00;100903.03;105506;1287;60076;-75
2023/01/07 04:07:09;;;;;;;3.30;2.70;;;;;;;8.93;100.00;100900.52;105513;1297;59813;-75
2023/01/07 04:09:36;;;;;;;3.80;3.10;;;;;;;8.94;100.00;100897.52;105396;1296;59708;-75
2023/01/07 04:12:02;;;;;;;5.30;3.00;;;;;;;8.97;100.00;100889.79;105419;1286;59902;-75
2023/01/07 04:14:29;;;;;;;3.80;2.90;;;;;;;9.00;100.00;100890.46;105397;1296;59891;-75
2023/01/07 04:16:55;;;;;;;3.70;3.10;;;;;;;9.02;100.00;100889.15;105644;1293;60193;-75
2023/01/07 04:19:22;;;;;;;3.90;3.00;;;;;;;9.04;100.00;100883.39;105655;1293;59932;-75
2023/01/07 04:21:48;;;;;;;3.10;2.70;;;;;;;9.05;100.00;100885.91;105598;1287;59847;-75
2023/01/07 04:24:15;;;;;;;3.40;2.60;;;;;;;9.07;100.00;100883.77;105511;1293;59879;-75
2023/01/07 04:26:41;;;;;;;3.30;2.40;;;;;;;9.07;100.00;100874.95;105644;1293;59687;-75
2023/01/07 04:29:10;;;;;;;3.80;2.70;;;;;;;9.09;100.00;100874.06;105559;1294;59632;-75
2023/01/07 04:31:36;;;;;;;3.40;2.70;;;;;;;9.11;100.00;100875.14;105600;1287;70891;-75
2023/01/07 04:34:02;;;;;;;3.40;2.80;;;;;;;9.13;100.00;100873.87;105638;1294;59787;-75
2023/01/07 04:36:29;;;;;;;3.40;2.80;;;;;;;9.16;100.00;100876.09;105505;1295;60129;-75
2023/01/07 04:38:56;;;;;;;3.50;2.60;;;;;;;9.19;100.00;100871.90;105653;1293;59804;-75
2023/01/07 04:41:22;;;;;;;4.20;2.60;;;;;;;9.21;100.00;100865.61;105410;1288;74191;-75
2023/01/07 04:43:49;;;;;;;3.70;2.30;;;;;;;9.24;100.00;100866.98;105627;1294;69100;-75
2023/01/07 04:46:15;;;;;;;3.90;2.30;;;;;;;9.25;100.00;100863.70;105527;1301;59900;-75
2023/01/07 04:48:42;;;;;;;3.10;2.40;;;;;;;9.26;100.00;100862.67;105603;1293;60051;-75
2023/01/07 04:51:08;;;;;;;3.00;2.30;;;;;;;9.28;100.00;100861.55;105631;1293;59905;-75
2023/01/07 04:53:35;;;;;;;3.20;2.30;;;;;;;9.31;100.00;100857.05;105640;1293;59662;-75
2023/01/07 04:56:01;;;;;;;2.40;2.00;;;;;;;9.33;100.00;100851.88;105490;1295;59776;-75
2023/01/07 04:58:27;;;;;;;2.60;2.10;;;;;;;9.32;100.00;100847.30;105480;1297;59802;-75
2023/01/07 05:00:57;;;;;;;2.90;1.80;;;;;;;9.32;100.00;100844.40;105490;1292;60319;-75
2023/01/07 05:03:24;;;;;;;2.80;1.90;;;;;;;9.31;100.00;100844.43;105532;1286;59749;-75
2023/01/07 05:05:51;;;;;;;3.00;2.00;;;;;;;9.30;100.00;100845.24;105445;1296;74560;-75
2023/01/07 05:08:17;;;;;;;2.90;1.90;;;;;;;9.30;100.00;100844.56;105517;1294;60313;-75
2023/01/07 05:10:43;;;;;;;2.70;2.00;;;;;;;9.30;100.00;100840.85;105384;1296;60024;-75
2023/01/07 05:13:15;;;;;;;2.60;2.10;;;;;;;9.30;100.00;100840.32;105617;1286;59819;-75
2023/01/07 05:15:41;;;;;;;3.10;2.20;;;;;;;9.29;100.00;100837.84;105397;1296;60132;-75
2023/01/07 05:18:08;;;;;;;3.50;2.30;;;;;;;9.30;100.00;100840.35;105612;1288;59665;-75
2023/01/07 05:20:34;;;;;;;2.90;2.40;;;;;;;9.30;100.00;100843.73;105626;1287;59767;-75
2023/01/07 05:23:01;;;;;;;3.00;2.30;;;;;;;9.30;100.00;100841.77;105443;1295;59743;-75
2023/01/07 05:25:27;;;;;;;4.10;2.50;;;;;;;9.31;100.00;100841.35;105636;1300;60127;-75
2023/01/07 05:27:53;;;;;;;3.10;2.60;;;;;;;9.31;100.00;100844.16;105634;1286;59772;-75
2023/01/07 05:30:20;;;;;;;2.90;2.20;;;;;;;9.28;100.00;100842.11;105641;1286;60167;-75
2023/01/07 05:32:46;;;;;;;2.70;2.10;;;;;;;9.27;100.00;100839.85;105544;1287;60117;-75
2023/01/07 05:35:13;;;;;;;4.00;2.20;;;;;;;9.24;100.00;100839.63;105421;1277;59866;-75
2023/01/07 05:37:39;;;;;;;3.30;2.10;;;;;;;9.22;100.00;100842.45;105587;1280;60215;-75
2023/01/07 05:40:06;;;;;;;2.30;1.80;;;;;;;9.20;100.00;100839.84;105643;1291;60084;-75
2023/01/07 05:42:33;;;;;;;2.50;1.70;;;;;;;9.19;100.00;100839.81;105433;1294;74357;-75
2023/01/07 05:44:59;;;;;;;2.50;1.80;;;;;;;9.17;100.00;100838.05;105538;1293;60242;-75
2023/01/07 05:47:26;;;;;;;2.90;1.90;;;;;;;9.16;100.00;100843.44;105514;1293;59766;-75
2023/01/07 05:49:52;;;;;;;3.20;1.70;;;;;;;9.14;100.00;100839.54;105612;1294;59924;-75
2023/01/07 05:52:19;;;;;;;2.30;1.50;;;;;;;9.13;100.00;100837.38;105377;1292;60175;-75
2023/01/07 05:54:45;;;;;;;2.10;1.40;;;;;;;9.14;100.00;100835.93;105437;1294;59938;-75
2023/01/07 05:57:12;;;;;;;3.50;1.50;;;;;;;9.14;100.00;100838.02;105523;1293;59772;-75
2023/01/07 05:59:38;;;;;;;2.50;1.50;;;;;;;9.13;100.00;100838.61;105502;1297;59844;-75
2023/01/07 06:02:04;;;;;;;2.70;1.50;;;;;;;9.12;100.00;100839.42;105285;1297;59900;-75
2023/01/07 06:04:33;;;;;;;2.20;1.40;;;;;;;9.12;100.00;100840.10;105636;1294;60210;-75
2023/01/07 06:07:00;;;;;;;2.90;1.30;;;;;;;9.13;100.00;100837.94;105449;1292;73296;-75
2023/01/07 06:09:28;;;;;;;2.30;1.40;;;;;;;9.15;100.00;100837.42;105508;1296;71480;-75
2023/01/07 06:11:57;;;;;;;3.20;1.50;;;;;;;9.15;100.00;100838.44;105388;1296;71643;-75
2023/01/07 06:14:23;;;;;;;2.90;1.70;;;;;;;9.14;100.00;100841.13;105607;1286;60786;-75
2023/01/07 06:16:50;;;;;;;2.20;1.40;;;;;;;9.13;100.00;100844.75;105660;1294;59746;-75
2023/01/07 06:19:16;;;;;;;2.20;1.50;;;;;;;9.11;100.00;100841.84;105515;1294;59791;-75
2023/01/07 06:21:42;;;;;;;2.40;1.30;;;;;;;9.09;100.00;100841.87;105423;1288;59929;-75
2023/01/07 06:24:10;;;;;;;2.50;1.70;;;;;;;9.07;100.00;100840.58;105513;1286;59770;-75
2023/01/07 06:26:36;;;;;;;2.40;1.50;;;;;;;9.04;100.00;100840.63;105411;1288;60193;-75
2023/01/07 06:29:02;;;;;;;2.30;1.60;;;;;;;9.01;100.00;100838.01;105522;1294;60341;-76
2023/01/07 06:31:29;;;;;;;2.20;1.40;;;;;;;8.96;100.00;100834.95;105435;1286;60495;-75
2023/01/07 06:33:56;;;;;;;2.30;1.40;;;;;;;8.92;100.00;100832.91;105429;1296;60175;-76
2023/01/07 06:36:22;;;;;;;2.80;1.30;;;;;;;8.88;100.00;100827.33;105609;1294;59749;-76
2023/01/07 06:38:48;;;;;;;2.20;1.40;;;;;;;8.85;100.00;100824.80;105504;1277;182183;-75
2023/01/07 06:41:15;;;;;;;2.10;1.40;;;;;;;8.83;100.00;100822.58;105642;1292;60427;-75
2023/01/07 06:43:41;;;;;;;2.10;1.30;;;;;;;8.80;100.00;100824.11;105656;1293;60135;-75
2023/01/07 06:46:08;;;;;;;2.80;1.50;;;;;;;8.76;100.00;100824.06;105544;1292;59758;-75
2023/01/07 06:48:34;;;;;;;2.10;1.60;;;;;;;8.73;100.00;100821.04;105625;1294;59673;-75
2023/01/07 06:51:01;;;;;;;2.30;1.60;;;;;;;8.70;100.00;100818.04;105416;1296;60186;-75
2023/01/07 06:53:27;;;;;;;2.80;1.60;;;;;;;8.68;100.00;100815.25;105581;1292;60051;-75
2023/01/07 06:55:54;;;;;;;3.80;2.10;;;;;;;8.66;100.00;100806.88;105500;1294;60391;-75
2023/01/07 06:58:20;;;;;;;3.30;1.90;;;;;;;8.64;100.00;100808.46;105652;1293;59896;-75
2023/01/07 07:00:47;;;;;;;2.60;1.80;;;;;;;8.64;100.00;100813.61;105436;1296;60079;-75
2023/01/07 07:03:13;;;;;;;3.60;2.00;;;;;;;8.63;100.00;100811.91;105545;1290;60314;-75
2023/01/07 07:05:40;;;;;;;3.50;1.70;;;;;;;8.62;100.00;100810.10;105446;1280;60284;-75
2023/01/07 07:08:06;;;;;;;3.60;1.80;;;;;;;8.59;100.00;100814.42;105630;1292;59890;-75
2023/01/07 07:10:33;;;;;;;2.70;1.80;;;;;;;8.59;100.00;100811.71;105510;1294;59840;-75
2023/01/07 07:12:59;;;;;;;3.00;1.80;;;;;;;8.56;100.00;100807.01;105677;1294;59881;-75
2023/01/07 07:15:26;;;;;;;2.40;1.90;;;;;;;8.54;100.00;100800.69;105380;1295;60144;-75
2023/01/07 07:17:52;;;;;;;2.80;2.00;;;;;;;8.54;100.00;100802.42;105579;1294;59930;-75
2023/01/07 07:20:19;;;;;;;3.60;1.90;;;;;;;8.53;100.00;100803.83;105649;1293;59829;-75
2023/01/07 07:22:46;;;;;;;4.40;2.00;;;;;;;8.53;100.00;100807.78;105460;1297;60541;-75
2023/01/07 07:25:13;;;;;;;3.20;1.70;;;;;;;8.54;100.00;100813.05;105432;1295;59996;-75
2023/01/07 07:27:40;;;;;;;3.10;1.80;;;;;;;8.56;100.00;100812.45;105548;1286;60959;-76
2023/01/07 07:30:07;;;;;;;2.50;1.70;;;;;;;8.57;100.00;100815.14;105636;1288;59804;-76
2023/01/07 07:32:33;;;;;;;2.80;1.70;;;;;;;8.59;100.00;100812.22;105496;1295;75712;-75
2023/01/07 07:35:00;;;;;;;2.40;1.80;;;;;;;8.59;100.00;100815.19;105408;1289;60124;-75
2023/01/07 07:37:26;;;;;;;2.80;1.90;;;;;;;8.60;100.00;100813.73;105481;1288;59825;-75
2023/01/07 07:39:53;;;;;;;2.60;1.90;;;;;;;8.59;100.00;100810.23;105529;1280;60337;-75
2023/01/07 07:42:19;;;;;;;3.10;1.80;;;;;;;8.59;100.00;100809.86;105612;1294;59919;-75
2023/01/07 07:44:45;;;;;;;2.90;2.00;;;;;;;8.57;100.00;100814.79;105509;1289;60236;-75
2023/01/07 07:47:12;;;;;;;2.60;2.00;;;;;;;8.56;100.00;100814.74;105633;1294;59892;-75
2023/01/07 07:49:38;;;;;;;2.90;2.00;;;;;;;8.56;100.00;100810.81;105522;1294;59864;-75
2023/01/07 07:52:05;;;;;;;3.10;2.30;;;;;;;8.59;100.00;100818.23;105517;1294;59809;-75
2023/01/07 07:54:32;;;;;;;2.70;1.90;;;;;;;8.60;100.00;100811.74;105430;1293;60131;-75
2023/01/07 07:56:58;;;;;;;3.30;2.10;;;;;;;8.63;100.00;100809.70;105566;1287;60507;-75
2023/01/07 07:59:25;;;;;;;3.50;2.20;;;;;;;8.64;100.00;100811.09;105523;1286;59743;-75
2023/01/07 08:01:51;;;;;;;3.90;2.40;;;;;;;8.69;100.00;100808.84;105632;1294;60085;-75
2023/01/07 08:04:18;;;;;;;4.10;2.50;;;;;;;8.73;100.00;100807.52;105501;1287;61039;-75
2023/01/07 08:06:44;;;;;;;3.80;2.70;;;;;;;8.77;100.00;100804.83;105624;1293;59881;-75
2023/01/07 08:09:11;;;;;;;4.40;2.80;;;;;;;8.83;99.92;100801.02;105527;1286;59719;-76
2023/01/07 08:11:37;;;;;;;3.80;2.50;;;;;;;8.87;99.85;100800.47;105503;1294;59741;-75
2023/01/07 08:14:04;;;;;;;3.10;2.30;;;;;;;8.90;99.48;100801.40;105508;1293;59754;-75
2023/01/07 08:16:30;;;;;;;4.90;2.30;;;;;;;8.93;99.10;100798.43;105612;1287;60851;-75
2023/01/07 08:18:57;;;;;;;4.30;2.50;;;;;;;8.96;99.09;100798.98;105517;1297;60091;-75
2023/01/07 08:21:23;;;;;;;3.80;2.60;;;;;;;8.97;98.83;100795.30;105626;1293;74379;-75
2023/01/07 08:23:50;;;;;;;3.00;2.40;;;;;;;8.97;98.65;100791.56;105434;1290;59777;-75
2023/01/07 08:26:16;;;;;;;4.20;2.50;;;;;;;8.98;98.49;100786.87;105635;1294;70791;-75
2023/01/07 08:28:43;;;;;;;4.90;2.50;;;;;;;9.00;98.28;100789.27;105448;1294;59866;-75
2023/01/07 08:31:12;;;;;;;4.10;2.30;;;;;;;8.99;98.00;100788.77;105625;1284;60467;-75
2023/01/07 08:33:39;;;;;;;4.10;2.60;;;;;;;8.99;97.97;100789.11;105647;1294;74660;-75
2023/01/07 08:36:07;;;;;;;3.70;2.60;;;;;;;8.98;97.82;100787.91;105480;1297;59734;-75
2023/01/07 08:38:50;;;;;;;3.70;2.60;;;;;;;9.00;97.73;100791.50;105428;1294;71882;-75
2023/01/07 08:41:17;;;;;;;3.40;2.50;;;;;;;9.01;97.56;100792.47;105422;1286;59802;-75
2023/01/07 08:43:44;;;;;;;3.10;2.50;;;;;;;9.04;97.45;100789.85;105366;1295;59881;-75
2023/01/07 08:46:10;;;;;;;3.50;2.50;;;;;;;9.07;97.05;100792.71;105666;1292;60219;-75
2023/01/07 08:48:39;;;;;;;3.70;2.70;;;;;;;9.11;96.79;100786.92;105515;1295;60141;-75
2023/01/07 08:51:05;;;;;;;3.90;2.70;;;;;;;9.16;96.63;100789.94;105619;1286;72874;-75
2023/01/07 08:53:32;;;;;;;3.80;2.30;;;;;;;9.22;96.23;100792.48;105414;1291;59995;-75
2023/01/07 08:55:58;;;;;;;3.60;2.50;;;;;;;9.28;96.07;100790.45;105496;1293;60024;-75
2023/01/07 08:58:25;;;;;;;3.20;2.40;;;;;;;9.33;95.83;100791.98;105530;1295;60321;-76
2023/01/07 09:00:52;;;;;;;4.20;2.70;;;;;;;9.39;95.72;100786.83;105553;1290;60143;-76
2023/01/07 09:03:18;;;;;;;3.30;2.70;;;;;;;9.45;95.63;100793.48;105407;1293;71965;-76
2023/01/07 09:05:46;;;;;;;3.40;2.60;;;;;;;9.50;95.30;100790.36;105533;1287;63575;-76
2023/01/07 09:08:12;;;;;;;3.90;2.40;;;;;;;9.56;95.20;100788.91;105447;1294;60249;-76
2023/01/07 09:10:39;;;;;;;3.20;2.60;;;;;;;9.62;95.05;100786.63;105428;1295;60133;-76
2023/01/07 09:13:05;;;;;;;2.90;2.40;;;;;;;9.65;94.28;100789.46;105637;1293;59664;-76
2023/01/07 09:15:32;;;;;;;3.00;2.50;;;;;;;9.69;93.93;100786.25;105595;1286;70733;-76
2023/01/07 09:17:58;;;;;;;3.30;2.40;;;;;;;9.74;94.01;100784.36;105524;1294;60003;-76
2023/01/07 09:20:24;;;;;;;4.60;2.10;;;;;;;9.83;94.02;100784.48;105519;1294;59808;-76
2023/01/07 09:22:51;;;;;;;3.20;2.30;;;;;;;9.90;93.53;100784.24;105506;1288;59693;-76
2023/01/07 09:25:17;;;;;;;2.80;2.00;;;;;;;9.98;93.20;100783.64;105433;1293;59895;-76
2023/01/07 09:27:44;;;;;;;4.30;2.40;;;;;;;10.04;92.87;100780.33;105621;1294;59838;-76
2023/01/07 09:30:11;;;;;;;3.60;2.40;;;;;;;10.09;92.50;100780.75;105649;1292;62934;-75
2023/01/07 09:32:38;;;;;;;2.90;2.20;;;;;;;10.16;92.51;100781.27;105747;1292;60488;-75
2023/01/07 09:35:05;;;;;;;4.00;2.70;;;;;;;10.20;92.15;100780.77;105570;1292;74487;-75
2023/01/07 09:37:32;;;;;;;3.90;2.80;;;;;;;10.23;91.58;100780.85;105782;1286;70973;-75
2023/01/07 09:40:00;;;;;;;3.20;2.40;;;;;;;10.27;91.42;100781.30;105511;1295;71753;-75
2023/01/07 09:42:42;;;;;;;3.80;2.80;;;;;;;10.31;91.67;100779.27;105587;1286;60968;-75
2023/01/07 09:45:20;;;;;;;3.40;2.60;;;;;;;10.32;90.93;100777.28;105427;1292;60977;-75
2023/01/07 09:47:51;;;;;;;3.90;2.50;;;;;;;10.34;90.88;100778.56;105301;1294;75759;-75
2023/01/07 09:50:43;;;;;;;3.20;2.60;;;;;;;10.39;91.09;100776.81;105531;1294;71272;-75
2023/01/07 09:53:21;;;;;;;5.20;2.90;;;;;;;10.44;91.05;100774.98;105309;1297;73616;-75
2023/01/07 09:55:50;;;;;;;3.00;2.50;;;;;;;10.51;91.26;100775.68;105594;1293;61225;-76
2023/01/07 09:58:38;;;;;;;4.10;2.20;;;;;;;10.52;90.52;100772.26;105509;1287;59839;-75
2023/01/07 10:01:42;;;;;;;3.00;2.30;;;;;;;10.57;90.63;100766.09;105502;1289;74910;-75
2023/01/07 10:04:21;;;;;;;3.20;2.10;;;;;;;10.64;90.61;100764.43;105496;1289;70698;-75
2023/01/07 10:06:58;;;;;;;3.20;2.00;;;;;;;10.68;89.81;100761.20;105598;1293;71183;-75
2023/01/07 10:09:39;;;;;;;2.60;1.80;;;;;;;10.70;89.52;100756.52;105435;1295;60814;-76
2023/01/07 10:12:25;;;;;;;2.40;1.60;;;;;;;10.72;89.16;100757.34;105532;1295;60277;-76
2023/01/07 10:15:23;;;;;;;2.20;1.40;;;;;;;10.75;88.50;100755.06;105598;1293;73901;-75
2023/01/07 10:18:00;;;;;;;2.10;1.40;;;;;;;10.76;87.70;100751.90;105592;1288;71272;-76
2023/01/07 10:20:39;;;;;;;2.20;1.40;;;;;;;10.81;87.31;100753.69;105483;1295;70725;-76
2023/01/07 10:23:12;;;;;;;3.30;1.50;;;;;;;10.87;87.03;100748.02;105617;1286;60426;-76
2023/01/07 10:25:44;;;;;;;2.10;1.30;;;;;;;10.89;85.86;100746.96;105519;1293;60105;-76
2023/01/07 10:28:20;;;;;;;2.90;1.50;;;;;;;10.95;86.11;100742.17;105426;1294;73027;-76
2023/01/07 10:30:51;;;;;;;2.10;1.40;;;;;;;10.99;85.81;100737.76;105516;1296;69633;-76
2023/01/07 10:33:28;;;;;;;2.50;1.50;;;;;;;11.05;85.84;100734.54;105396;1297;71468;-76
2023/01/07 10:36:03;;;;;;;2.50;1.40;;;;;;;11.04;85.14;100729.34;105324;1294;61801;-76
2023/01/07 10:38:34;;;;;;;2.10;1.50;;;;;;;11.01;84.70;100729.45;105517;1294;60032;-76
2023/01/07 10:41:07;;;;;;;2.50;1.50;;;;;;;11.03;85.06;100726.91;105522;1293;74869;-76
2023/01/07 10:43:52;;;;;;;2.50;1.50;;;;;;;11.06;84.59;100723.70;105429;1286;69605;-75
2023/01/07 10:46:39;;;;;;;2.00;1.40;;;;;;;11.13;84.52;100726.08;105510;1288;71169;-76
2023/01/07 10:49:42;;;;;;;2.00;1.40;;;;;;;11.23;84.21;100719.59;105400;1297;60392;-76
2023/01/07 10:52:22;;;;;;;2.30;1.50;;;;;;;11.36;83.79;100716.03;105644;1292;59687;-76
2023/01/07 10:55:01;;;;;;;2.80;1.50;;;;;;;11.49;83.69;100710.28;105542;1295;73149;-76
2023/01/07 10:57:30;;;;;;;2.70;1.20;;;;;;;11.58;82.63;100708.30;105625;1293;71121;-76
2023/01/07 11:00:01;;;;;;;2.20;1.30;;;;;;;11.69;82.04;100702.61;105611;1293;71382;-76
2023/01/07 11:02:29;;;;;;;3.00;1.30;;;;;;;11.78;81.16;100700.71;105525;1289;60800;-76
2023/01/07 11:04:57;;;;;;;2.20;1.30;;;;;;;11.90;80.18;100702.42;105403;1297;60599;-76
2023/01/07 11:07:42;;;;;;;1.80;1.00;;;;;;;12.02;79.53;100695.99;105510;1297;75232;-76
2023/01/07 11:10:32;;;;;;;1.90;0.90;;;;;;;12.04;77.60;100693.48;105455;1295;69596;-76
2023/01/07 11:13:07;;;;;;;1.70;0.80;;;;;;;12.07;77.87;100684.15;105453;1295;71564;-76
2023/01/07 11:15:45;;;;;;;1.50;0.80;;;;;;;12.06;76.89;100684.05;105502;1294;60927;-76
2023/01/07 11:18:35;;;;;;;1.60;0.90;;;;;;;12.02;76.37;100678.77;105519;1292;59984;-76
2023/01/07 11:21:01;;;;;;;2.20;0.70;;;;;;;11.98;75.78;100678.02;105511;1294;75526;-76
2023/01/07 11:23:30;;;;;;;1.30;0.70;;;;;;;11.96;75.69;100670.02;105609;1287;59861;-75
2023/01/07 11:26:25;;;;;;;1.10;0.60;;;;;;;11.97;75.63;100668.11;105632;1294;71443;-73
2023/01/07 11:29:01;;;;;;;1.70;0.60;;;;;;;12.03;75.20;100660.82;105524;1300;60911;-73
2023/01/07 11:31:49;;;;;;;1.40;0.70;;;;;;;12.03;74.46;100651.91;105599;1292;60115;-73
2023/01/07 11:34:25;;;;;;;1.50;0.80;;;;;;;12.05;74.34;100649.52;105622;1286;73968;-73
2023/01/07 11:36:52;;;;;;;1.70;0.50;;;;;;;12.04;73.70;100648.56;105641;1291;69635;-73